createdAt,value
2024-05-09T00:04:59.111Z,58.65
2024-05-09T00:10:14.699Z,58.64
2024-05-09T00:15:28.157Z,58.63
2024-05-09T00:20:38.906Z,58.63
2024-05-09T00:25:49.970Z,58.63
2024-05-09T00:30:56.473Z,58.63
2024-05-09T00:36:02.859Z,58.62
2024-05-09T00:41:11.818Z,58.62
2024-05-09T00:46:18.146Z,58.63
2024-05-09T00:51:24.597Z,58.63
2024-05-09T00:56:33.622Z,58.62
2024-05-09T01:01:40.360Z,58.62
2024-05-09T01:06:46.825Z,58.62
2024-05-09T01:11:56.252Z,58.63
2024-05-09T01:17:07.356Z,58.63
2024-05-09T01:22:13.660Z,58.64
2024-05-09T01:27:22.698Z,58.63
2024-05-09T01:32:29.080Z,58.64
2024-05-09T01:37:35.327Z,58.64
2024-05-09T01:42:44.363Z,58.64
2024-05-09T01:47:51.046Z,58.62
2024-05-09T01:52:57.398Z,58.62
2024-05-09T01:58:08.046Z,58.62
2024-05-09T02:03:17.456Z,58.62
2024-05-09T02:08:24.836Z,58.62
2024-05-09T02:13:33.752Z,58.62
2024-05-09T02:18:39.986Z,58.61
2024-05-09T02:23:46.275Z,58.61
2024-05-09T02:28:55.137Z,58.61
2024-05-09T02:34:01.688Z,58.61
2024-05-09T02:39:08.067Z,58.61
2024-05-09T02:44:17.733Z,58.62
2024-05-09T02:49:24.120Z,58.61
2024-05-09T02:54:30.539Z,58.61
2024-05-09T02:59:39.487Z,58.62
2024-05-09T03:04:46.016Z,58.61
2024-05-09T03:09:52.384Z,58.61
2024-05-09T03:15:01.236Z,58.60
2024-05-09T03:20:14.637Z,58.60
2024-05-09T03:25:26.701Z,58.61
2024-05-09T03:30:40.919Z,58.61
2024-05-09T03:35:49.784Z,58.61
2024-05-09T03:40:59.030Z,58.61
2024-05-09T03:46:08.136Z,58.61
2024-05-09T03:51:14.257Z,58.62
2024-05-09T03:56:20.502Z,58.62
2024-05-09T04:01:30.122Z,58.62
2024-05-09T04:06:36.397Z,58.62
2024-05-09T04:11:42.702Z,58.62
2024-05-09T04:16:51.592Z,58.62
2024-05-09T04:21:57.804Z,58.62
2024-05-09T04:27:04.043Z,58.62
2024-05-09T04:32:13.126Z,58.62
2024-05-09T04:37:19.405Z,58.62
2024-05-09T04:42:25.610Z,58.61
2024-05-09T04:47:34.590Z,58.62
2024-05-09T04:52:40.824Z,58.62
2024-05-09T04:57:46.969Z,58.62
2024-05-09T05:02:57.888Z,58.62
2024-05-09T05:08:04.426Z,58.62
2024-05-09T05:13:21.251Z,58.60
2024-05-09T05:18:31.631Z,58.62
2024-05-09T05:23:37.848Z,58.61
2024-05-09T05:28:44.116Z,58.61
2024-05-09T05:33:53.424Z,58.60
2024-05-09T05:38:59.633Z,58.60
2024-05-09T05:44:05.833Z,58.60
2024-05-09T05:49:14.946Z,58.61
2024-05-09T05:54:21.305Z,58.60
2024-05-09T05:59:29.349Z,58.61
2024-05-09T06:04:38.555Z,58.61
2024-05-09T06:09:47.407Z,58.61
2024-05-09T06:14:53.902Z,58.61
2024-05-09T06:20:03.005Z,58.61
2024-05-09T06:25:10.008Z,58.60
2024-05-09T06:30:25.792Z,58.60
2024-05-09T06:35:40.208Z,58.60
2024-05-09T06:40:46.714Z,58.61
2024-05-09T06:45:55.384Z,58.60
2024-05-09T06:51:04.274Z,58.62
2024-05-09T06:56:11.260Z,58.61
2024-05-09T07:01:17.530Z,58.61
2024-05-09T07:06:29.027Z,58.62
2024-05-09T07:11:35.495Z,58.61
2024-05-09T07:16:41.790Z,58.62
2024-05-09T07:21:51.506Z,58.62
2024-05-09T07:26:57.647Z,58.62
2024-05-09T07:32:03.832Z,58.62
2024-05-09T07:37:17.067Z,58.62
2024-05-09T07:42:23.206Z,58.62
2024-05-09T07:48:57.278Z,58.61
2024-05-09T07:58:09.454Z,58.61
2024-05-09T08:03:15.703Z,58.60
2024-05-09T08:08:24.558Z,58.60
2024-05-09T08:13:30.683Z,58.62
2024-05-09T08:18:38.599Z,58.61
2024-05-09T08:23:47.516Z,58.62
2024-05-09T08:28:53.693Z,58.61
2024-05-09T08:33:59.977Z,58.62
2024-05-09T08:39:08.898Z,58.62
2024-05-09T08:44:15.366Z,58.62
2024-05-09T08:49:21.751Z,58.61
2024-05-09T08:54:30.673Z,58.62
2024-05-09T08:59:38.596Z,58.61
2024-05-09T09:04:51.489Z,58.63
2024-05-09T09:10:00.712Z,58.63
2024-05-09T09:15:07.155Z,58.65
2024-05-09T09:20:19.263Z,58.64
2024-05-09T09:25:34.827Z,58.65
2024-05-09T09:30:42.563Z,58.66
2024-05-09T09:35:48.869Z,58.66
2024-05-09T09:40:57.755Z,58.66
2024-05-09T09:46:04.493Z,58.65
2024-05-09T09:51:11.902Z,58.65
2024-05-09T09:56:21.813Z,58.62
2024-05-09T10:01:28.682Z,58.64
2024-05-09T10:06:40.480Z,58.65
2024-05-09T10:11:52.351Z,58.67
2024-05-09T10:17:07.713Z,58.69
2024-05-09T10:22:14.026Z,58.72
2024-05-09T10:27:29.893Z,58.77
2024-05-09T10:32:41.829Z,58.85
2024-05-09T10:37:51.702Z,58.83
2024-05-09T10:43:05.800Z,58.77
2024-05-09T10:48:12.857Z,58.79
2024-05-09T10:53:19.292Z,58.87
2024-05-09T10:58:29.575Z,58.88
2024-05-09T11:03:36.583Z,58.86
2024-05-09T11:08:43.123Z,58.83
2024-05-09T11:13:51.972Z,58.89
2024-05-09T11:18:59.600Z,58.90
2024-05-09T11:24:07.298Z,58.88
2024-05-09T11:29:19.722Z,58.87
2024-05-09T11:34:26.384Z,58.87
2024-05-09T11:39:32.883Z,58.85
2024-05-09T11:44:41.735Z,58.79
2024-05-09T11:49:48.063Z,58.75
2024-05-09T11:54:54.641Z,58.82
2024-05-09T12:00:05.598Z,58.82
2024-05-09T12:05:13.754Z,58.80
2024-05-09T12:10:26.100Z,58.90
2024-05-09T12:15:42.676Z,58.94
2024-05-09T12:20:48.880Z,58.89
2024-05-09T12:25:56.140Z,58.88
2024-05-09T12:31:04.880Z,58.91
2024-05-09T12:36:11.331Z,58.94
2024-05-09T12:41:17.645Z,58.98
2024-05-09T12:46:26.950Z,58.99
2024-05-09T12:51:33.693Z,59.04
2024-05-09T12:56:39.909Z,59.01
2024-05-09T13:01:48.765Z,59.04
2024-05-09T13:06:55.264Z,59.11
2024-05-09T13:12:01.589Z,59.06
2024-05-09T13:17:10.599Z,59.08
2024-05-09T13:22:16.856Z,59.11
2024-05-09T13:27:23.086Z,59.11
2024-05-09T13:32:32.049Z,59.14
2024-05-09T13:37:38.416Z,59.17
2024-05-09T13:42:46.394Z,59.16
2024-05-09T13:47:57.893Z,59.19
2024-05-09T13:53:05.761Z,59.14
2024-05-09T13:58:13.288Z,59.18
2024-05-09T14:03:22.380Z,59.16
2024-05-09T14:08:28.790Z,59.16
2024-05-09T14:13:34.953Z,59.21
2024-05-09T14:18:43.789Z,59.19
2024-05-09T14:23:50.003Z,59.23
2024-05-09T14:28:56.501Z,59.23
2024-05-09T14:34:05.585Z,59.22
2024-05-09T14:39:11.892Z,59.21
2024-05-09T14:44:18.580Z,59.22
2024-05-09T14:49:27.464Z,59.22
2024-05-09T14:54:33.735Z,59.22
2024-05-09T14:59:39.951Z,59.24
2024-05-09T15:04:48.868Z,59.20
2024-05-09T15:09:55.211Z,59.18
2024-05-09T15:15:01.435Z,59.18
2024-05-09T15:20:17.047Z,59.12
2024-05-09T15:25:26.496Z,59.01
2024-05-09T15:30:34.158Z,59.00
2024-05-09T15:35:46.346Z,58.99
2024-05-09T15:40:52.822Z,58.97
2024-05-09T15:45:59.091Z,59.01
2024-05-09T15:51:08.104Z,58.99
2024-05-09T15:56:14.647Z,59.02
2024-05-09T16:01:23.903Z,59.04
2024-05-09T16:06:35.232Z,59.06
2024-05-09T16:11:52.398Z,59.11
2024-05-09T16:16:58.679Z,59.04
2024-05-09T16:22:08.611Z,59.06
2024-05-09T16:27:15.048Z,59.07
2024-05-09T16:32:21.292Z,59.09
2024-05-09T16:37:30.220Z,59.08
2024-05-09T16:42:36.469Z,59.10
2024-05-09T16:47:42.905Z,59.09
2024-05-09T16:53:00.392Z,59.07
2024-05-09T16:58:45.547Z,59.07
2024-05-09T17:03:53.951Z,59.04
2024-05-09T17:09:08.263Z,59.07
2024-05-09T17:14:18.251Z,59.04
2024-05-09T17:19:24.771Z,59.01
2024-05-09T17:24:33.664Z,58.99
2024-05-09T17:29:40.011Z,58.99
2024-05-09T17:34:46.296Z,58.97
2024-05-09T17:39:55.211Z,58.94
2024-05-09T17:45:01.594Z,58.93
2024-05-09T17:50:14.644Z,58.90
2024-05-09T17:55:25.898Z,58.88
2024-05-09T18:00:38.084Z,58.85
2024-05-09T18:05:47.268Z,58.85
2024-05-09T18:10:56.244Z,58.82
2024-05-09T18:16:02.513Z,58.82
2024-05-09T18:21:08.947Z,58.79
2024-05-09T18:26:17.754Z,58.77
2024-05-09T18:31:24.022Z,58.76
2024-05-09T18:36:30.596Z,58.76
2024-05-09T18:41:39.468Z,58.75
2024-05-09T18:46:45.739Z,58.76
2024-05-09T18:51:51.925Z,58.75
2024-05-09T18:57:00.806Z,58.75
2024-05-09T19:02:07.328Z,58.74
2024-05-09T19:07:13.701Z,58.74
2024-05-09T19:12:22.547Z,58.76
2024-05-09T19:17:29.001Z,58.76
2024-05-09T19:22:35.352Z,58.74
2024-05-09T19:27:44.733Z,58.71
2024-05-09T19:32:54.096Z,58.69
2024-05-09T19:38:00.482Z,58.69
2024-05-09T19:43:09.688Z,58.69
2024-05-09T19:48:16.267Z,58.69
2024-05-09T19:53:24.121Z,58.67
2024-05-09T19:58:33.093Z,58.69
2024-05-09T20:03:39.546Z,58.68
2024-05-09T20:08:45.786Z,58.69
2024-05-09T20:13:54.614Z,58.69
2024-05-09T20:19:01.040Z,58.68
2024-05-09T20:24:07.544Z,58.68
2024-05-09T20:29:16.353Z,58.69
2024-05-09T20:34:22.557Z,58.69
2024-05-09T20:39:29.318Z,58.69
2024-05-09T20:44:38.407Z,58.68
2024-05-09T20:49:46.146Z,58.68
2024-05-09T20:54:53.492Z,58.67
2024-05-09T21:00:03.278Z,58.67
2024-05-09T21:05:11.064Z,58.67
2024-05-09T21:10:22.408Z,58.67
2024-05-09T21:15:32.113Z,58.67
2024-05-09T21:20:38.476Z,58.67
2024-05-09T21:25:44.622Z,58.67
2024-05-09T21:30:53.458Z,58.66
2024-05-09T21:35:59.784Z,58.66
2024-05-09T21:41:06.032Z,58.65
2024-05-09T21:46:15.032Z,58.65
2024-05-09T21:51:21.446Z,58.64
2024-05-09T21:56:27.614Z,58.62
2024-05-09T22:01:36.634Z,58.61
2024-05-09T22:06:42.934Z,58.59
2024-05-09T22:11:52.024Z,58.59
2024-05-09T22:17:01.684Z,58.60
2024-05-09T22:22:08.271Z,58.61
2024-05-09T22:27:14.486Z,58.61
2024-05-09T22:32:23.368Z,58.62
2024-05-09T22:37:29.553Z,58.62
2024-05-09T22:42:35.699Z,58.62
2024-05-09T22:47:45.979Z,58.62
2024-05-09T22:52:52.271Z,58.62
2024-05-09T22:57:58.500Z,58.62
2024-05-09T23:03:09.133Z,58.62
2024-05-09T23:08:15.289Z,58.60
2024-05-09T23:13:21.539Z,58.61
2024-05-09T23:18:30.515Z,58.61
2024-05-09T23:23:36.751Z,58.60
2024-05-09T23:28:42.958Z,58.61
2024-05-09T23:33:52.116Z,58.61
2024-05-09T23:38:58.715Z,58.60
2024-05-09T23:44:04.913Z,58.61
2024-05-09T23:49:13.953Z,58.62
2024-05-09T23:54:20.187Z,58.61
2024-05-09T23:59:26.345Z,58.60
